createdAt,value
2022-10-05T00:00:29.808Z,989.8
2022-10-05T00:02:31.286Z,989.9
2022-10-05T00:04:33.097Z,989.8
2022-10-05T00:06:34.338Z,989.9
2022-10-05T00:08:36.226Z,989.9
2022-10-05T00:10:37.712Z,989.9
2022-10-05T00:12:39.118Z,989.8
2022-10-05T00:14:41.074Z,989.8
2022-10-05T00:16:42.063Z,989.6
2022-10-05T00:18:43.529Z,989.6
2022-10-05T00:20:44.775Z,989.6
2022-10-05T00:22:46.104Z,989.6
2022-10-05T00:24:47.677Z,989.6
2022-10-05T00:26:51.735Z,989.4
2022-10-05T00:28:51.322Z,989.5
2022-10-05T00:30:52.728Z,989.5
2022-10-05T00:32:58.755Z,989.5
2022-10-05T00:34:55.899Z,989.4
2022-10-05T00:36:57.785Z,989.4
2022-10-05T00:41:01.050Z,989.3
2022-10-05T00:43:02.819Z,989.3
2022-10-05T00:45:04.704Z,989.4
2022-10-05T00:47:06.586Z,989.2
2022-10-05T00:49:07.731Z,989.2
2022-10-05T00:51:09.155Z,989.3
2022-10-05T00:53:10.794Z,989.3
2022-10-05T00:55:12.471Z,989.4
2022-10-05T00:57:14.151Z,989.4
2022-10-05T00:59:15.531Z,989.4
2022-10-05T01:01:17.090Z,989.4
2022-10-05T01:03:18.411Z,989.5
2022-10-05T01:05:20.134Z,989.5
2022-10-05T01:07:21.554Z,989.5
2022-10-05T01:09:23.434Z,989.5
2022-10-05T01:11:25.293Z,989.5
2022-10-05T01:13:27.172Z,989.5
2022-10-05T01:15:28.340Z,989.4
2022-10-05T01:17:29.971Z,989.5
2022-10-05T01:19:31.460Z,989.4
2022-10-05T01:23:33.705Z,989.4
2022-10-05T01:25:35.115Z,989.4
2022-10-05T01:29:37.790Z,989.5
2022-10-05T01:31:39.311Z,989.5
2022-10-05T01:33:40.798Z,989.5
2022-10-05T01:35:42.115Z,989.5
2022-10-05T01:37:43.783Z,989.5
2022-10-05T01:39:45.245Z,989.4
2022-10-05T01:41:46.739Z,989.5
2022-10-05T01:43:48.244Z,989.4
2022-10-05T01:45:49.889Z,989.5
2022-10-05T01:47:51.721Z,989.4
2022-10-05T01:49:53.509Z,989.5
2022-10-05T01:51:55.031Z,989.4
2022-10-05T01:53:56.523Z,989.3
2022-10-05T01:55:57.747Z,989.3
2022-10-05T01:57:59.295Z,989.3
2022-10-05T02:00:00.844Z,989.2
2022-10-05T02:02:02.516Z,989.1
2022-10-05T02:04:03.912Z,989.1
2022-10-05T02:06:05.441Z,989.1
2022-10-05T02:08:07.169Z,989.1
2022-10-05T02:10:08.458Z,989
2022-10-05T02:12:10.063Z,989
2022-10-05T02:14:11.905Z,989
2022-10-05T02:16:13.328Z,989
2022-10-05T02:18:15.213Z,989.1
2022-10-05T02:18:59.082Z,989
2022-10-05T02:23:02.269Z,989.1
2022-10-05T02:25:03.899Z,989.2
2022-10-05T02:27:04.995Z,989.3
2022-10-05T02:29:06.511Z,989.1
2022-10-05T02:31:07.975Z,989.1
2022-10-05T02:33:09.505Z,989.1
2022-10-05T02:35:11.330Z,989.3
2022-10-05T02:37:12.907Z,989.3
2022-10-05T02:39:14.865Z,989.3
2022-10-05T02:41:16.591Z,989.4
2022-10-05T02:43:18.403Z,989.3
2022-10-05T02:45:19.837Z,989.3
2022-10-05T02:47:20.922Z,989.4
2022-10-05T02:49:21.954Z,989.4
2022-10-05T02:51:23.339Z,989.4
2022-10-05T02:53:24.694Z,989.4
2022-10-05T02:55:26.513Z,989.4
2022-10-05T02:57:27.573Z,989.3
2022-10-05T02:59:29.544Z,989.3
2022-10-05T03:01:31.584Z,989.2
2022-10-05T03:05:34.851Z,989.2
2022-10-05T03:07:36.826Z,989.2
2022-10-05T03:09:38.087Z,989.2
2022-10-05T03:11:39.227Z,989.1
2022-10-05T03:13:40.735Z,989.1
2022-10-05T03:15:42.034Z,989.1
2022-10-05T03:17:43.676Z,989
2022-10-05T03:19:44.839Z,989
2022-10-05T03:21:46.336Z,989
2022-10-05T03:23:47.710Z,988.9
2022-10-05T03:25:49.661Z,988.8
2022-10-05T03:27:51.244Z,988.8
2022-10-05T03:31:53.776Z,988.8
2022-10-05T03:33:55.188Z,988.8
2022-10-05T03:35:56.174Z,988.8
2022-10-05T03:37:57.573Z,988.7
2022-10-05T03:39:59.061Z,988.8
2022-10-05T03:42:00.567Z,988.7
2022-10-05T03:44:01.773Z,988.6
2022-10-05T03:46:03.053Z,988.7
2022-10-05T03:48:04.299Z,988.7
2022-10-05T03:50:06.261Z,988.8
2022-10-05T03:52:08.084Z,988.8
2022-10-05T03:54:09.427Z,988.7
2022-10-05T03:56:10.517Z,988.7
2022-10-05T03:58:12.209Z,988.7
2022-10-05T04:00:14.055Z,988.7
2022-10-05T04:02:15.527Z,988.7
2022-10-05T04:04:16.887Z,988.7
2022-10-05T04:06:18.324Z,988.8
2022-10-05T04:08:19.506Z,988.7
2022-10-05T04:10:21.399Z,988.7
2022-10-05T04:12:22.537Z,988.8
2022-10-05T04:14:24.310Z,988.8
2022-10-05T04:16:25.692Z,988.9
2022-10-05T04:18:27.073Z,988.8
2022-10-05T04:20:28.117Z,988.8
2022-10-05T04:22:29.915Z,988.8
2022-10-05T04:24:31.416Z,988.8
2022-10-05T04:26:32.644Z,988.8
2022-10-05T04:30:35.466Z,989
2022-10-05T04:32:37.348Z,988.9
2022-10-05T04:34:38.561Z,988.9
2022-10-05T04:36:39.929Z,988.8
2022-10-05T04:38:40.943Z,988.8
2022-10-05T04:40:42.060Z,988.8
2022-10-05T04:42:43.247Z,988.8
2022-10-05T04:44:44.786Z,988.9
2022-10-05T04:46:46.641Z,988.9
2022-10-05T04:48:48.325Z,988.8
2022-10-05T04:50:49.458Z,988.8
2022-10-05T04:52:51.220Z,988.9
2022-10-05T04:54:53.167Z,988.8
2022-10-05T04:56:54.469Z,989
2022-10-05T04:58:55.478Z,989
2022-10-05T05:00:57.235Z,989
2022-10-05T05:02:58.375Z,989
2022-10-05T05:04:59.667Z,989
2022-10-05T05:07:01.245Z,989.1
2022-10-05T05:09:02.466Z,989
2022-10-05T05:11:03.505Z,989.1
2022-10-05T05:13:04.569Z,989
2022-10-05T05:15:05.854Z,989.1
2022-10-05T05:17:10.840Z,989
2022-10-05T05:19:08.253Z,989.1
2022-10-05T05:21:09.329Z,989.1
2022-10-05T05:25:11.820Z,989.2
2022-10-05T05:27:13.172Z,989.1
2022-10-05T05:29:14.801Z,989.2
2022-10-05T05:31:16.638Z,989.2
2022-10-05T05:33:17.966Z,989.3
2022-10-05T05:35:19.836Z,989.2
2022-10-05T05:37:21.748Z,989.2
2022-10-05T05:39:23.596Z,989.2
2022-10-05T05:41:24.943Z,989.3
2022-10-05T05:43:26.161Z,989.3
2022-10-05T05:45:27.615Z,989.4
2022-10-05T05:47:28.807Z,989.4
2022-10-05T05:49:30.468Z,989.5
2022-10-05T05:51:32.317Z,989.4
2022-10-05T05:55:35.815Z,989.5
2022-10-05T05:57:37.763Z,989.5
2022-10-05T05:59:39.748Z,989.5
2022-10-05T06:01:44.415Z,989.5
2022-10-05T06:03:43.624Z,989.6
2022-10-05T06:05:45.594Z,989.6
2022-10-05T06:07:46.970Z,989.6
2022-10-05T06:11:50.438Z,989.6
2022-10-05T06:13:52.190Z,989.6
2022-10-05T06:15:53.423Z,989.6
2022-10-05T06:17:55.016Z,989.6
2022-10-05T06:19:59.000Z,989.7
2022-10-05T06:21:57.727Z,989.6
2022-10-05T06:23:59.006Z,989.7
2022-10-05T06:26:00.752Z,989.7
2022-10-05T06:28:02.103Z,989.7
2022-10-05T06:30:03.891Z,989.8
2022-10-05T06:32:05.041Z,989.7
2022-10-05T06:34:06.866Z,989.8
2022-10-05T06:36:08.521Z,989.8
2022-10-05T06:38:09.527Z,989.9
2022-10-05T06:40:11.124Z,989.9
2022-10-05T06:42:13.043Z,989.9
2022-10-05T06:44:14.294Z,989.9
2022-10-05T06:46:15.822Z,989.8
2022-10-05T06:48:17.734Z,989.9
2022-10-05T06:50:19.479Z,989.9
2022-10-05T06:52:20.990Z,989.9
2022-10-05T06:54:22.462Z,989.9
2022-10-05T06:58:24.970Z,989.9
2022-10-05T07:00:26.567Z,989.9
2022-10-05T07:02:28.540Z,989.9
2022-10-05T07:08:32.721Z,989.8
2022-10-05T07:10:33.657Z,989.8
2022-10-05T07:12:34.592Z,989.9
2022-10-05T07:14:36.803Z,989.8
2022-10-05T07:16:37.933Z,989.8
2022-10-05T07:18:39.313Z,989.7
2022-10-05T07:20:41.428Z,989.7
2022-10-05T07:22:42.320Z,989.7
2022-10-05T07:24:43.727Z,989.7
2022-10-05T07:26:45.677Z,989.8
2022-10-05T07:28:47.533Z,989.7
2022-10-05T07:30:48.955Z,989.7
2022-10-05T07:32:50.910Z,989.8
2022-10-05T07:34:52.447Z,989.7
2022-10-05T07:36:55.101Z,989.8
2022-10-05T07:38:55.569Z,989.8
2022-10-05T07:40:57.197Z,989.7
2022-10-05T07:42:58.171Z,989.8
2022-10-05T07:45:00.716Z,989.8
2022-10-05T07:47:01.697Z,989.9
2022-10-05T07:51:06.137Z,989.7
2022-10-05T07:53:07.494Z,989.8
2022-10-05T07:55:08.825Z,989.8
2022-10-05T07:57:10.627Z,989.8
2022-10-05T07:59:11.599Z,989.8
2022-10-05T08:01:12.818Z,989.8
2022-10-05T08:03:13.854Z,989.8
2022-10-05T08:05:15.215Z,989.8
2022-10-05T08:07:16.192Z,989.8
2022-10-05T08:09:17.856Z,989.8
2022-10-05T08:11:18.889Z,989.8
2022-10-05T08:13:20.106Z,989.7
2022-10-05T08:15:21.163Z,989.8
2022-10-05T08:17:24.029Z,989.6
2022-10-05T08:19:23.630Z,989.8
2022-10-05T08:21:24.485Z,989.7
2022-10-05T08:23:26.298Z,989.7
2022-10-05T08:25:27.930Z,989.7
2022-10-05T08:27:29.302Z,989.7
2022-10-05T08:29:30.270Z,989.7
2022-10-05T08:33:32.913Z,989.6
2022-10-05T08:35:34.954Z,989.7
2022-10-05T08:37:36.218Z,989.7
2022-10-05T08:39:37.409Z,989.7
2022-10-05T08:41:39.040Z,989.7
2022-10-05T08:43:40.508Z,989.8
2022-10-05T08:45:41.398Z,989.8
2022-10-05T08:47:42.618Z,989.7
2022-10-05T08:49:43.921Z,989.7
2022-10-05T08:51:45.377Z,989.7
2022-10-05T08:53:46.277Z,989.6
2022-10-05T08:55:48.019Z,989.6
2022-10-05T08:57:49.501Z,989.7
2022-10-05T08:59:50.610Z,989.6
2022-10-05T09:01:53.066Z,989.6
2022-10-05T09:03:54.398Z,989.6
2022-10-05T09:05:04.295Z,989.6
2022-10-05T09:07:05.721Z,989.6
2022-10-05T09:11:07.889Z,989.6
2022-10-05T09:13:08.865Z,989.6
2022-10-05T09:15:25.218Z,989.6
2022-10-05T09:17:10.927Z,989.6
2022-10-05T09:19:11.889Z,989.6
2022-10-05T09:21:13.336Z,989.7
2022-10-05T09:23:14.903Z,989.6
2022-10-05T09:25:16.022Z,989.6
2022-10-05T09:27:17.255Z,989.6
2022-10-05T09:29:18.490Z,989.6
2022-10-05T09:31:20.085Z,989.5
2022-10-05T09:33:21.662Z,989.6
2022-10-05T09:35:22.850Z,989.4
2022-10-05T09:37:23.742Z,989.4
2022-10-05T09:39:24.730Z,989.3
2022-10-05T09:41:26.329Z,989.3
2022-10-05T09:43:27.741Z,989.3
2022-10-05T09:47:30.696Z,989.3
2022-10-05T09:49:32.415Z,989.3
2022-10-05T09:51:34.070Z,989.4
2022-10-05T09:53:34.983Z,989.4
2022-10-05T09:55:36.354Z,989.2
2022-10-05T09:57:37.378Z,989.3
2022-10-05T09:59:39.144Z,989.3
2022-10-05T10:01:40.678Z,989.3
2022-10-05T10:03:42.231Z,989.2
2022-10-05T10:05:43.380Z,989.3
2022-10-05T10:07:44.390Z,989.2
2022-10-05T10:09:45.597Z,989.4
2022-10-05T10:11:47.361Z,989.3
2022-10-05T10:13:47.944Z,989.3
2022-10-05T10:17:50.256Z,989.3
2022-10-05T10:19:51.621Z,989.3
2022-10-05T10:21:53.162Z,989.2
2022-10-05T10:23:54.753Z,989.2
2022-10-05T10:25:56.203Z,989.3
2022-10-05T10:27:57.425Z,989.3
2022-10-05T10:29:58.736Z,989.2
2022-10-05T10:31:59.721Z,989.3
2022-10-05T10:34:01.202Z,989.1
2022-10-05T10:36:04.407Z,989.1
2022-10-05T10:38:03.981Z,989.2
2022-10-05T10:40:05.012Z,989.2
2022-10-05T10:42:06.413Z,989.1
2022-10-05T10:44:08.172Z,989.2
2022-10-05T10:46:09.392Z,989.1
2022-10-05T10:48:10.159Z,989.1
2022-10-05T10:52:12.260Z,989.2
2022-10-05T10:54:14.022Z,989.1
2022-10-05T10:56:15.418Z,989.2
2022-10-05T10:58:17.163Z,989.1
2022-10-05T11:00:17.929Z,989.1
2022-10-05T11:02:19.047Z,989.1
2022-10-05T11:04:20.581Z,989
2022-10-05T11:06:21.835Z,989
2022-10-05T11:08:31.399Z,989.1
2022-10-05T11:10:24.304Z,989.1
2022-10-05T11:12:25.167Z,989
2022-10-05T11:14:26.021Z,989.1
2022-10-05T11:18:29.475Z,989
2022-10-05T11:20:30.944Z,988.9
2022-10-05T11:22:31.805Z,988.9
2022-10-05T11:24:33.115Z,989
2022-10-05T11:28:36.340Z,989
2022-10-05T11:30:37.714Z,989
2022-10-05T11:32:39.449Z,988.9
2022-10-05T11:34:40.406Z,988.9
2022-10-05T11:36:41.242Z,988.9
2022-10-05T11:38:42.240Z,988.8
2022-10-05T11:40:43.382Z,988.9
2022-10-05T11:42:44.791Z,988.9
2022-10-05T11:44:46.087Z,988.8
2022-10-05T11:46:47.893Z,988.8
2022-10-05T11:48:49.173Z,988.8
2022-10-05T11:50:50.912Z,988.9
2022-10-05T11:52:52.256Z,988.8
2022-10-05T11:55:09.671Z,988.8
2022-10-05T11:56:54.950Z,988.7
2022-10-05T11:58:55.823Z,988.8
2022-10-05T12:00:57.139Z,988.7
2022-10-05T12:02:58.553Z,988.7
2022-10-05T12:04:59.891Z,988.6
2022-10-05T12:07:01.158Z,988.7
2022-10-05T12:09:02.880Z,988.7
2022-10-05T12:11:03.906Z,988.6
2022-10-05T12:13:05.323Z,988.6
2022-10-05T12:17:07.550Z,988.5
2022-10-05T12:19:08.452Z,988.6
2022-10-05T12:21:09.520Z,988.6
2022-10-05T12:23:10.920Z,988.5
2022-10-05T12:25:12.219Z,988.6
2022-10-05T12:27:13.315Z,988.5
2022-10-05T12:29:14.768Z,988.4
2022-10-05T12:33:16.973Z,988.5
2022-10-05T12:35:29.917Z,988.4
2022-10-05T12:39:22.521Z,988.4
2022-10-05T12:41:23.601Z,988.5
2022-10-05T12:43:24.799Z,988.5
2022-10-05T12:45:26.983Z,988.4
2022-10-05T12:47:28.586Z,988.3
2022-10-05T12:49:29.460Z,988.4
2022-10-05T12:51:30.439Z,988.4
2022-10-05T12:53:32.108Z,988.4
2022-10-05T12:55:33.349Z,988.3
2022-10-05T12:57:34.703Z,988.4
2022-10-05T12:59:35.748Z,988.5
2022-10-05T13:01:36.903Z,988.4
2022-10-05T13:03:38.016Z,988.4
2022-10-05T13:05:38.955Z,988.4
2022-10-05T13:07:40.646Z,988.3
2022-10-05T13:09:41.614Z,988.3
2022-10-05T13:11:43.350Z,988.3
2022-10-05T13:13:44.562Z,988.3
2022-10-05T13:15:46.107Z,988.3
2022-10-05T13:17:47.190Z,988.3
2022-10-05T13:19:48.958Z,988.2
2022-10-05T13:21:50.629Z,988.2
2022-10-05T13:23:56.534Z,988.2
2022-10-05T13:25:53.673Z,988.2
2022-10-05T13:27:55.319Z,988.2
2022-10-05T13:29:56.683Z,988.2
2022-10-05T13:31:57.801Z,988.1
2022-10-05T13:33:58.805Z,988.1
2022-10-05T13:35:59.890Z,988.1
2022-10-05T13:38:00.747Z,988.1
2022-10-05T13:42:03.004Z,988
2022-10-05T13:44:03.987Z,988.1
2022-10-05T13:46:05.203Z,988.1
2022-10-05T13:48:06.003Z,988
2022-10-05T13:50:07.397Z,988.1
2022-10-05T13:52:08.265Z,988
2022-10-05T13:54:09.001Z,988
2022-10-05T13:58:11.530Z,988
2022-10-05T14:00:13.145Z,988
2022-10-05T14:02:14.397Z,988
2022-10-05T14:04:15.323Z,988
2022-10-05T14:06:16.794Z,988
2022-10-05T14:08:18.057Z,988
2022-10-05T14:10:19.292Z,987.9
2022-10-05T14:14:21.904Z,987.9
2022-10-05T14:16:23.241Z,987.9
2022-10-05T14:18:24.527Z,987.9
2022-10-05T14:20:25.558Z,987.8
2022-10-05T14:22:27.145Z,987.8
2022-10-05T14:24:42.682Z,987.8
2022-10-05T14:26:29.043Z,987.9
2022-10-05T14:28:30.630Z,987.8
2022-10-05T14:30:31.799Z,987.8
2022-10-05T14:32:33.555Z,987.8
2022-10-05T14:34:34.623Z,987.8
2022-10-05T14:36:36.096Z,987.7
2022-10-05T14:38:37.466Z,987.8
2022-10-05T14:40:39.211Z,987.7
2022-10-05T14:42:42.678Z,987.7
2022-10-05T14:44:41.644Z,987.7
2022-10-05T14:46:42.891Z,987.5
2022-10-05T14:48:43.935Z,987.6
2022-10-05T14:50:44.906Z,987.6
2022-10-05T14:52:49.647Z,987.6
2022-10-05T14:54:47.687Z,987.6
2022-10-05T14:56:49.041Z,987.6
2022-10-05T14:58:50.246Z,987.6
2022-10-05T15:00:51.101Z,987.6
2022-10-05T15:02:52.750Z,987.5
2022-10-05T15:04:53.622Z,987.6
2022-10-05T15:06:56.897Z,987.5
2022-10-05T15:08:56.429Z,987.4
2022-10-05T15:10:57.863Z,987.4
2022-10-05T15:12:59.119Z,987.4
2022-10-05T15:15:00.209Z,987.5
2022-10-05T15:17:01.751Z,987.4
2022-10-05T15:19:02.526Z,987.5
2022-10-05T15:21:04.177Z,987.4
2022-10-05T15:23:05.674Z,987.4
2022-10-05T15:25:07.114Z,987.4
2022-10-05T15:27:08.362Z,987.5
2022-10-05T15:29:09.295Z,987.4
2022-10-05T15:31:11.024Z,987.5
2022-10-05T15:33:12.355Z,987.5
2022-10-05T15:35:13.469Z,987.4
2022-10-05T15:37:14.299Z,987.4
2022-10-05T15:39:15.957Z,987.5
2022-10-05T15:41:17.627Z,987.5
2022-10-05T15:43:19.094Z,987.6
2022-10-05T15:45:20.471Z,987.5
2022-10-05T15:47:22.126Z,987.6
2022-10-05T15:49:23.767Z,987.6
2022-10-05T15:50:07.427Z,987.6
2022-10-05T15:54:09.442Z,987.6
2022-10-05T15:56:11.073Z,987.6
2022-10-05T15:58:11.899Z,987.5
2022-10-05T16:00:13.681Z,987.5
2022-10-05T16:02:15.240Z,987.6
2022-10-05T16:04:16.019Z,987.6
2022-10-05T16:06:16.949Z,987.6
2022-10-05T16:08:17.940Z,987.6
2022-10-05T16:10:18.782Z,987.7
2022-10-05T16:12:20.199Z,987.6
2022-10-05T16:14:21.778Z,987.7
2022-10-05T16:16:23.367Z,987.6
2022-10-05T16:18:25.078Z,987.6
2022-10-05T16:20:25.987Z,987.7
2022-10-05T16:22:27.322Z,987.6
2022-10-05T16:24:28.995Z,987.7
2022-10-05T16:26:30.012Z,987.6
2022-10-05T16:28:31.625Z,987.7
2022-10-05T16:30:32.872Z,987.7
2022-10-05T16:32:34.003Z,987.7
2022-10-05T16:34:34.992Z,987.7
2022-10-05T16:36:36.101Z,987.8
2022-10-05T16:38:37.595Z,987.8
2022-10-05T16:40:39.091Z,987.8
2022-10-05T16:42:40.296Z,987.8
2022-10-05T16:44:41.381Z,987.7
2022-10-05T16:46:42.434Z,987.8
2022-10-05T16:48:43.767Z,987.9
2022-10-05T16:50:45.316Z,987.8
2022-10-05T16:52:46.530Z,987.9
2022-10-05T16:54:48.305Z,987.9
2022-10-05T16:56:49.344Z,987.9
2022-10-05T16:58:50.820Z,987.9
2022-10-05T17:00:51.982Z,987.9
2022-10-05T17:02:53.223Z,988
2022-10-05T17:04:54.333Z,987.9
2022-10-05T17:06:55.512Z,988
2022-10-05T17:08:56.740Z,987.9
2022-10-05T17:10:58.457Z,987.9
2022-10-05T17:12:59.445Z,987.9
2022-10-05T17:15:01.345Z,987.9
2022-10-05T17:17:03.121Z,987.8
2022-10-05T17:21:06.673Z,987.9
2022-10-05T17:23:07.780Z,987.8
2022-10-05T17:27:10.654Z,987.8
2022-10-05T17:29:12.172Z,987.9
2022-10-05T17:31:13.871Z,987.9
2022-10-05T17:33:14.851Z,987.9
2022-10-05T17:35:18.626Z,987.9
2022-10-05T17:37:17.538Z,988
2022-10-05T17:39:18.501Z,988
2022-10-05T17:41:20.035Z,988
2022-10-05T17:43:21.541Z,988
2022-10-05T17:45:23.304Z,988.1
2022-10-05T17:47:24.469Z,988.1
2022-10-05T17:49:26.141Z,988.1
2022-10-05T17:51:27.852Z,988.1
2022-10-05T17:53:28.842Z,988.1
2022-10-05T17:55:30.540Z,988.1
2022-10-05T17:57:31.971Z,988.1
2022-10-05T17:59:33.748Z,988.1
2022-10-05T18:01:34.889Z,988.1
2022-10-05T18:03:36.439Z,988.2
2022-10-05T18:05:38.212Z,988.1
2022-10-05T18:07:39.530Z,988.2
2022-10-05T18:09:41.212Z,988.2
2022-10-05T18:11:42.707Z,988.2
2022-10-05T18:13:43.896Z,988.2
2022-10-05T18:15:44.873Z,988.3
2022-10-05T18:17:46.578Z,988.3
2022-10-05T18:19:47.902Z,988.3
2022-10-05T18:21:49.345Z,988.2
2022-10-05T18:23:50.247Z,988.3
2022-10-05T18:25:51.929Z,988.3
2022-10-05T18:27:53.425Z,988.3
2022-10-05T18:29:54.425Z,988.3
2022-10-05T18:31:55.919Z,988.4
2022-10-05T18:33:56.840Z,988.4
2022-10-05T18:35:58.037Z,988.4
2022-10-05T18:37:59.919Z,988.5
2022-10-05T18:40:01.678Z,988.4
2022-10-05T18:42:03.148Z,988.4
2022-10-05T18:44:04.440Z,988.4
2022-10-05T18:46:05.719Z,988.4
2022-10-05T18:48:07.241Z,988.5
2022-10-05T18:50:08.320Z,988.5
2022-10-05T18:52:09.755Z,988.6
2022-10-05T18:54:11.474Z,988.5
2022-10-05T18:56:12.691Z,988.6
2022-10-05T18:58:13.930Z,988.5
2022-10-05T19:00:15.238Z,988.6
2022-10-05T19:02:17.017Z,988.6
2022-10-05T19:04:18.385Z,988.6
2022-10-05T19:06:19.535Z,988.7
2022-10-05T19:08:21.390Z,988.7
2022-10-05T19:10:23.173Z,988.8
2022-10-05T19:12:24.169Z,988.8
2022-10-05T19:14:25.936Z,988.8
2022-10-05T19:16:27.827Z,988.8
2022-10-05T19:18:29.746Z,988.9
2022-10-05T19:22:32.802Z,988.9
2022-10-05T19:24:34.676Z,989
2022-10-05T19:26:35.631Z,989
2022-10-05T19:28:37.318Z,989
2022-10-05T19:32:40.117Z,989.1
2022-10-05T19:34:41.211Z,989.2
2022-10-05T19:36:42.849Z,989.2
2022-10-05T19:38:44.730Z,989.2
2022-10-05T19:40:46.329Z,989.3
2022-10-05T19:42:48.107Z,989.3
2022-10-05T19:44:49.478Z,989.4
2022-10-05T19:46:50.943Z,989.4
2022-10-05T19:48:52.306Z,989.5
2022-10-05T19:50:53.287Z,989.5
2022-10-05T19:52:54.511Z,989.5
2022-10-05T19:54:55.536Z,989.5
2022-10-05T19:56:56.717Z,989.6
2022-10-05T19:58:58.109Z,989.6
2022-10-05T20:00:59.392Z,989.7
2022-10-05T20:03:00.986Z,989.7
2022-10-05T20:05:02.747Z,989.7
2022-10-05T20:07:04.653Z,989.7
2022-10-05T20:09:06.419Z,989.7
2022-10-05T20:11:07.501Z,989.8
2022-10-05T20:13:09.193Z,989.8
2022-10-05T20:15:10.100Z,989.8
2022-10-05T20:17:11.861Z,989.8
2022-10-05T20:21:15.079Z,989.8
2022-10-05T20:23:16.887Z,989.9
2022-10-05T20:25:18.202Z,990
2022-10-05T20:27:20.032Z,990
2022-10-05T20:29:21.537Z,990
2022-10-05T20:31:22.688Z,990
2022-10-05T20:33:24.006Z,990
2022-10-05T20:37:26.743Z,990.1
2022-10-05T20:39:27.989Z,990.1
2022-10-05T20:41:29.467Z,990.1
2022-10-05T20:43:31.368Z,990.1
2022-10-05T20:45:33.253Z,990.2
2022-10-05T20:47:34.971Z,990.3
2022-10-05T20:49:35.939Z,990.2
2022-10-05T20:51:37.565Z,990.3
2022-10-05T20:53:38.990Z,990.3
2022-10-05T20:55:40.043Z,990.4
2022-10-05T20:57:41.511Z,990.5
2022-10-05T20:59:42.696Z,990.5
2022-10-05T21:01:43.980Z,990.4
2022-10-05T21:03:44.843Z,990.5
2022-10-05T21:05:46.603Z,990.6
2022-10-05T21:07:48.422Z,990.6
2022-10-05T21:09:49.547Z,990.5
2022-10-05T21:11:51.293Z,990.6
2022-10-05T21:13:53.132Z,990.6
2022-10-05T21:15:54.737Z,990.5
2022-10-05T21:17:56.346Z,990.7
2022-10-05T21:19:58.125Z,990.6
2022-10-05T21:21:59.357Z,990.7
2022-10-05T21:24:00.437Z,990.6
2022-10-05T21:26:01.984Z,990.7
2022-10-05T21:28:03.313Z,990.7
2022-10-05T21:30:04.428Z,990.7
2022-10-05T21:32:06.156Z,990.7
2022-10-05T21:34:07.176Z,990.6
2022-10-05T21:36:08.313Z,990.6
2022-10-05T21:38:09.682Z,990.7
2022-10-05T21:40:11.274Z,990.7
2022-10-05T21:42:12.992Z,990.6
2022-10-05T21:46:15.948Z,990.8
2022-10-05T21:48:17.083Z,990.8
2022-10-05T21:50:18.818Z,990.9
2022-10-05T21:52:20.646Z,990.9
2022-10-05T21:54:22.341Z,990.9
2022-10-05T21:56:23.609Z,990.8
2022-10-05T21:58:24.818Z,990.8
2022-10-05T22:00:26.378Z,990.9
2022-10-05T22:02:27.387Z,990.9
2022-10-05T22:04:28.646Z,990.9
2022-10-05T22:06:30.082Z,991
2022-10-05T22:08:31.996Z,991
2022-10-05T22:10:33.187Z,991
2022-10-05T22:12:34.600Z,991
2022-10-05T22:14:35.895Z,990.9
2022-10-05T22:16:37.451Z,991
2022-10-05T22:18:38.819Z,991
2022-10-05T22:20:40.597Z,991.1
2022-10-05T22:22:41.513Z,991.1
2022-10-05T22:24:42.409Z,991
2022-10-05T22:26:43.635Z,991.1
2022-10-05T22:28:45.178Z,991.1
2022-10-05T22:30:46.876Z,991.1
2022-10-05T22:32:48.673Z,991.1
2022-10-05T22:34:49.642Z,991.1
2022-10-05T22:35:33.405Z,991.1
2022-10-05T22:39:35.900Z,991.1
2022-10-05T22:41:37.538Z,991.2
2022-10-05T22:43:39.236Z,991.1
2022-10-05T22:45:40.289Z,991.1
2022-10-05T22:47:41.941Z,991.2
2022-10-05T22:49:43.161Z,991.1
2022-10-05T22:51:44.113Z,991.1
2022-10-05T22:55:46.963Z,991.2
2022-10-05T22:57:48.411Z,991.2
2022-10-05T22:59:49.506Z,991.3
2022-10-05T23:01:50.808Z,991.3
2022-10-05T23:03:52.282Z,991.4
2022-10-05T23:05:53.908Z,991.4
2022-10-05T23:07:55.550Z,991.5
2022-10-05T23:09:56.974Z,991.4
2022-10-05T23:11:58.609Z,991.4
2022-10-05T23:14:00.162Z,991.4
2022-10-05T23:16:01.342Z,991.4
2022-10-05T23:18:02.262Z,991.5
2022-10-05T23:20:03.776Z,991.4
2022-10-05T23:22:05.521Z,991.5
2022-10-05T23:24:06.800Z,991.5
2022-10-05T23:26:07.670Z,991.5
2022-10-05T23:28:09.402Z,991.5
2022-10-05T23:30:10.403Z,991.5
2022-10-05T23:32:11.676Z,991.5
2022-10-05T23:34:13.471Z,991.6
2022-10-05T23:36:15.298Z,991.5
2022-10-05T23:38:17.212Z,991.5
2022-10-05T23:40:18.452Z,991.6
2022-10-05T23:42:20.213Z,991.6
2022-10-05T23:44:21.340Z,991.6
2022-10-05T23:46:22.595Z,991.5
2022-10-05T23:48:24.229Z,991.7
2022-10-05T23:50:25.895Z,991.7
2022-10-05T23:52:27.151Z,991.8
2022-10-05T23:54:28.528Z,991.8
2022-10-05T23:56:29.886Z,991.8
2022-10-05T23:58:31.785Z,991.8
